createdAt,value
2022-12-20T00:01:36.206Z,97754.69
2022-12-20T00:04:06.969Z,97769.16
2022-12-20T00:06:36.352Z,97741.72
2022-12-20T00:09:07.857Z,97748.38
2022-12-20T00:11:36.672Z,97734.56
2022-12-20T00:14:04.969Z,97739.19
2022-12-20T00:16:33.374Z,97727.69
2022-12-20T00:19:03.786Z,97732.69
2022-12-20T00:21:34.810Z,97744.03
2022-12-20T00:24:03.770Z,97746.44
2022-12-20T00:26:34.844Z,97760.94
2022-12-20T00:29:03.570Z,97764.97
2022-12-20T00:31:32.761Z,97749.19
2022-12-20T00:34:02.302Z,97739.69
2022-12-20T00:36:33.958Z,97742.44
2022-12-20T00:39:03.200Z,97742.56
2022-12-20T00:41:33.618Z,97746.53
2022-12-20T00:44:02.183Z,97737.38
2022-12-20T00:46:31.723Z,97753.28
2022-12-20T00:49:00.481Z,97754.47
2022-12-20T00:51:31.336Z,97751.53
2022-12-20T00:54:01.299Z,97770.22
2022-12-20T00:56:29.557Z,97762.56
2022-12-20T00:59:00.282Z,97765.78
2022-12-20T01:01:31.779Z,97758.75
2022-12-20T01:04:00.399Z,97749.66
2022-12-20T01:06:29.462Z,97753.06
2022-12-20T01:08:58.721Z,97749.22
2022-12-20T01:11:31.058Z,97754.31
2022-12-20T01:14:02.307Z,97753.34
2022-12-20T01:16:36.781Z,97743.91
2022-12-20T01:19:05.862Z,97735.56
2022-12-20T01:21:34.683Z,97728.84
2022-12-20T01:24:03.072Z,97713.41
2022-12-20T01:26:32.756Z,97716.91
2022-12-20T01:29:01.409Z,97718.97
2022-12-20T01:31:31.153Z,97722.16
2022-12-20T01:34:01.619Z,97709.28
2022-12-20T01:36:32.328Z,97702.66
2022-12-20T01:39:02.923Z,97713.47
2022-12-20T01:41:34.089Z,97718.97
2022-12-20T01:44:04.675Z,97713.63
2022-12-20T01:46:34.916Z,97713.84
2022-12-20T01:49:08.261Z,97711.31
2022-12-20T01:51:39.757Z,97709.78
2022-12-20T01:54:13.846Z,97695.78
2022-12-20T01:56:49.056Z,97690.09
2022-12-20T01:59:18.293Z,97682.84
2022-12-20T02:01:47.362Z,97679.63
2022-12-20T02:04:15.676Z,97683.78
2022-12-20T02:06:44.827Z,97667.44
2022-12-20T02:09:14.015Z,97662.25
2022-12-20T02:12:08.152Z,97670.28
2022-12-20T02:14:51.928Z,97670.88
2022-12-20T02:17:28.106Z,97672.47
2022-12-20T02:20:17.672Z,97681.72
2022-12-20T02:23:04.213Z,97665.84
2022-12-20T02:25:54.528Z,97657.13
2022-12-20T02:28:47.319Z,97671.53
2022-12-20T02:31:20.355Z,97659.69
2022-12-20T02:33:51.089Z,97646.06
2022-12-20T02:36:19.875Z,97653.56
2022-12-20T02:38:51.801Z,97651.53
2022-12-20T02:41:25.014Z,97649.19
2022-12-20T02:44:15.603Z,97659.94
2022-12-20T02:46:46.915Z,97661.72
2022-12-20T02:49:17.871Z,97649.06
2022-12-20T02:51:49.410Z,97658.66
2022-12-20T02:54:18.965Z,97669.31
2022-12-20T02:56:53.733Z,97669.53
2022-12-20T02:59:26.260Z,97658.84
2022-12-20T03:01:57.956Z,97656.56
2022-12-20T03:04:30.426Z,97663.34
2022-12-20T03:07:00.872Z,97669.56
2022-12-20T03:09:29.978Z,97670.59
2022-12-20T03:11:58.623Z,97656.75
2022-12-20T03:14:26.919Z,97663.63
2022-12-20T03:16:59.896Z,97663.72
2022-12-20T03:19:28.180Z,97655.19
2022-12-20T03:21:56.509Z,97652.34
2022-12-20T03:24:25.034Z,97648.63
2022-12-20T03:26:54.472Z,97653.63
2022-12-20T03:29:25.282Z,97649.31
2022-12-20T03:31:53.588Z,97651.84
2022-12-20T03:34:23.325Z,97660.78
2022-12-20T03:36:51.633Z,97638.81
2022-12-20T03:39:19.779Z,97650.09
2022-12-20T03:41:48.242Z,97652.78
2022-12-20T03:44:19.261Z,97657.81
2022-12-20T03:46:47.600Z,97662.53
2022-12-20T03:49:16.037Z,97670.31
2022-12-20T03:51:50.611Z,97667.13
2022-12-20T03:54:20.071Z,97653.97
2022-12-20T03:57:07.751Z,97645.91
2022-12-20T03:59:36.672Z,97647.78
2022-12-20T04:02:06.629Z,97652.28
2022-12-20T04:04:35.413Z,97652.59
2022-12-20T04:07:05.108Z,97650.06
2022-12-20T04:09:34.512Z,97649.56
2022-12-20T04:12:09.322Z,97642.00
2022-12-20T04:14:39.866Z,97654.44
2022-12-20T04:17:08.637Z,97654.50
2022-12-20T04:19:37.889Z,97679.94
2022-12-20T04:22:09.031Z,97668.09
2022-12-20T04:25:02.764Z,97670.09
2022-12-20T04:27:34.563Z,97671.72
2022-12-20T04:30:08.783Z,97660.00
2022-12-20T04:32:36.956Z,97662.31
2022-12-20T04:35:06.309Z,97662.63
2022-12-20T04:37:40.626Z,97664.31
2022-12-20T04:40:10.698Z,97653.00
2022-12-20T04:42:47.581Z,97646.38
2022-12-20T04:45:17.493Z,97649.03
2022-12-20T04:47:45.960Z,97637.66
2022-12-20T04:50:17.221Z,97640.59
2022-12-20T04:53:05.231Z,97635.72
2022-12-20T04:55:38.607Z,97635.94
2022-12-20T04:58:07.827Z,97635.22
2022-12-20T05:00:38.694Z,97643.00
2022-12-20T05:03:19.758Z,97638.81
2022-12-20T05:05:48.942Z,97642.19
2022-12-20T05:08:19.468Z,97635.94
2022-12-20T05:10:49.302Z,97642.09
2022-12-20T05:13:17.857Z,97631.78
2022-12-20T05:15:52.383Z,97634.59
2022-12-20T05:18:26.236Z,97649.44
2022-12-20T05:21:23.369Z,97628.44
2022-12-20T05:24:12.810Z,97631.88
2022-12-20T05:26:55.031Z,97620.91
2022-12-20T05:29:23.625Z,97618.41
2022-12-20T05:31:52.137Z,97622.06
2022-12-20T05:34:20.804Z,97612.69
2022-12-20T05:36:53.642Z,97617.22
2022-12-20T05:39:26.131Z,97619.91
2022-12-20T05:41:57.392Z,97631.41
2022-12-20T05:44:27.285Z,97627.78
2022-12-20T05:46:58.624Z,97622.41
2022-12-20T05:49:30.924Z,97624.41
2022-12-20T05:52:02.342Z,97632.31
2022-12-20T05:54:32.827Z,97632.47
2022-12-20T05:57:21.216Z,97620.47
2022-12-20T05:59:49.751Z,97638.72
2022-12-20T06:02:20.653Z,97613.53
2022-12-20T06:04:52.593Z,97613.03
2022-12-20T06:07:23.578Z,97620.38
2022-12-20T06:10:00.566Z,97625.53
2022-12-20T06:12:41.857Z,97618.16
2022-12-20T06:15:11.351Z,97609.50
2022-12-20T06:17:40.598Z,97617.78
2022-12-20T06:20:12.231Z,97618.91
2022-12-20T06:22:41.348Z,97611.44
2022-12-20T06:25:12.526Z,97611.72
2022-12-20T06:27:42.280Z,97604.31
2022-12-20T06:30:19.033Z,97607.44
2022-12-20T06:33:16.729Z,97598.41
2022-12-20T06:35:44.929Z,97598.03
2022-12-20T06:38:13.504Z,97588.53
2022-12-20T06:40:43.523Z,97584.31
2022-12-20T06:43:11.785Z,97584.91
2022-12-20T06:45:42.177Z,97589.59
2022-12-20T06:48:12.644Z,97596.91
2022-12-20T06:50:42.144Z,97600.63
2022-12-20T06:53:10.934Z,97608.88
2022-12-20T06:55:40.540Z,97614.88
2022-12-20T06:58:10.392Z,97603.84
2022-12-20T07:00:39.633Z,97602.97
2022-12-20T07:03:08.810Z,97604.69
2022-12-20T07:05:37.388Z,97600.88
2022-12-20T07:08:06.749Z,97613.28
2022-12-20T07:10:36.740Z,97608.97
2022-12-20T07:13:05.268Z,97607.50
2022-12-20T07:15:35.194Z,97616.91
2022-12-20T07:18:03.745Z,97606.56
2022-12-20T07:20:32.437Z,97618.19
2022-12-20T07:23:00.957Z,97622.56
2022-12-20T07:25:29.279Z,97619.78
2022-12-20T07:27:57.777Z,97630.81
2022-12-20T07:30:26.960Z,97632.34
2022-12-20T07:32:56.791Z,97621.63
2022-12-20T07:35:25.040Z,97624.16
2022-12-20T07:37:54.250Z,97612.66
2022-12-20T07:40:22.456Z,97600.16
2022-12-20T07:42:50.900Z,97607.94
2022-12-20T07:45:19.968Z,97601.72
2022-12-20T07:47:48.393Z,97601.97
2022-12-20T07:50:18.152Z,97588.66
2022-12-20T07:52:49.253Z,97574.38
2022-12-20T07:55:19.625Z,97563.38
2022-12-20T07:57:51.655Z,97573.59
2022-12-20T08:00:20.696Z,97571.88
2022-12-20T08:02:54.030Z,97566.44
2022-12-20T08:05:24.763Z,97573.47
2022-12-20T08:07:58.991Z,97581.75
2022-12-20T08:10:28.597Z,97576.63
2022-12-20T08:12:57.464Z,97560.63
2022-12-20T08:15:26.965Z,97567.81
2022-12-20T08:17:55.264Z,97565.16
2022-12-20T08:20:25.039Z,97566.38
2022-12-20T08:22:53.281Z,97580.06
2022-12-20T08:25:22.285Z,97593.72
2022-12-20T08:27:50.844Z,97586.59
2022-12-20T08:30:19.330Z,97584.94
2022-12-20T08:32:47.533Z,97574.06
2022-12-20T08:35:15.863Z,97569.75
2022-12-20T08:37:45.579Z,97572.34
2022-12-20T08:40:14.745Z,97566.03
2022-12-20T08:42:42.903Z,97574.84
2022-12-20T08:45:12.432Z,97606.56
2022-12-20T08:47:40.892Z,97572.16
2022-12-20T08:50:10.091Z,97568.75
2022-12-20T08:52:38.456Z,97589.91
2022-12-20T08:55:08.917Z,97605.34
2022-12-20T08:57:37.148Z,97594.22
2022-12-20T09:00:06.386Z,97595.09
2022-12-20T09:02:38.291Z,97581.75
2022-12-20T09:05:07.416Z,97576.44
2022-12-20T09:07:35.577Z,97576.41
2022-12-20T09:10:03.946Z,97579.88
2022-12-20T09:12:37.329Z,97555.25
2022-12-20T09:15:07.139Z,97557.59
2022-12-20T09:17:35.618Z,97565.03
2022-12-20T09:20:03.968Z,97561.16
2022-12-20T09:22:32.201Z,97567.16
2022-12-20T09:25:00.482Z,97560.38
2022-12-20T09:27:28.680Z,97562.03
2022-12-20T09:29:59.038Z,97560.28
2022-12-20T09:32:27.273Z,97561.47
2022-12-20T09:34:56.117Z,97552.44
2022-12-20T09:37:24.341Z,97545.75
2022-12-20T09:39:52.552Z,97563.81
2022-12-20T09:42:25.798Z,97566.38
2022-12-20T09:45:04.799Z,97588.63
2022-12-20T09:47:36.111Z,97587.69
2022-12-20T09:50:07.636Z,97593.53
2022-12-20T09:52:58.395Z,97588.41
2022-12-20T09:55:35.699Z,97593.09
2022-12-20T09:58:20.269Z,97579.53
2022-12-20T10:00:53.926Z,97567.81
2022-12-20T10:03:30.207Z,97544.81
2022-12-20T10:06:01.586Z,97542.28
2022-12-20T10:08:46.476Z,97556.94
2022-12-20T10:11:40.701Z,97551.84
2022-12-20T10:14:28.261Z,97563.75
2022-12-20T10:17:03.440Z,97578.16
2022-12-20T10:20:00.846Z,97560.38
2022-12-20T10:22:35.216Z,97564.66
2022-12-20T10:25:15.511Z,97567.09
2022-12-20T10:27:44.908Z,97562.03
2022-12-20T10:30:16.896Z,97558.56
2022-12-20T10:32:47.532Z,97553.50
2022-12-20T10:35:31.497Z,97541.47
2022-12-20T10:38:09.944Z,97535.53
2022-12-20T10:41:18.830Z,97535.56
2022-12-20T10:43:37.659Z,97534.69
2022-12-20T10:46:08.511Z,97551.81
2022-12-20T10:48:39.142Z,97533.56
2022-12-20T10:51:17.902Z,97536.28
2022-12-20T10:53:55.949Z,97526.03
2022-12-20T10:56:27.565Z,97521.72
2022-12-20T10:58:58.903Z,97521.72
2022-12-20T11:01:31.743Z,97512.34
2022-12-20T11:04:03.092Z,97506.41
2022-12-20T11:06:44.938Z,97492.59
2022-12-20T11:09:26.158Z,97503.88
2022-12-20T11:12:02.565Z,97499.56
2022-12-20T11:14:38.723Z,97489.31
2022-12-20T11:17:23.804Z,97477.31
2022-12-20T11:20:08.238Z,97482.34
2022-12-20T11:22:52.302Z,97488.28
2022-12-20T11:25:38.269Z,97481.53
2022-12-20T11:28:21.383Z,97469.56
2022-12-20T11:30:59.890Z,97461.88
2022-12-20T11:33:44.484Z,97453.88
2022-12-20T11:36:23.752Z,97441.31
2022-12-20T11:39:05.525Z,97442.06
2022-12-20T11:41:43.843Z,97446.31
2022-12-20T11:44:26.611Z,97447.34
2022-12-20T11:47:11.880Z,97431.06
2022-12-20T11:50:00.512Z,97431.03
2022-12-20T11:52:37.034Z,97432.75
2022-12-20T11:55:18.015Z,97419.78
2022-12-20T11:58:17.400Z,97420.72
2022-12-20T12:00:49.544Z,97419.22
2022-12-20T12:03:24.563Z,97420.44
2022-12-20T12:05:57.126Z,97394.97
2022-12-20T12:08:33.285Z,97396.38
2022-12-20T12:11:07.486Z,97389.63
2022-12-20T12:13:40.367Z,97384.94
2022-12-20T12:16:12.598Z,97378.25
2022-12-20T12:18:42.273Z,97374.88
2022-12-20T12:21:19.811Z,97390.97
2022-12-20T12:23:58.852Z,97385.41
2022-12-20T12:26:30.817Z,97359.94
2022-12-20T12:29:01.279Z,97370.25
2022-12-20T12:31:37.362Z,97378.63
2022-12-20T12:34:13.234Z,97371.63
2022-12-20T12:37:07.013Z,97352.94
2022-12-20T12:39:52.800Z,97380.25
2022-12-20T12:42:54.673Z,97389.72
2022-12-20T12:45:27.492Z,97372.59
2022-12-20T12:47:59.585Z,97371.88
2022-12-20T12:50:31.085Z,97377.97
2022-12-20T12:53:05.017Z,97384.78
2022-12-20T12:55:45.749Z,97383.13
2022-12-20T12:58:33.379Z,97366.03
2022-12-20T13:01:05.090Z,97371.16
2022-12-20T13:03:44.293Z,97372.88
2022-12-20T13:07:04.667Z,97376.31
2022-12-20T13:09:53.746Z,97372.91
2022-12-20T13:12:56.646Z,97367.75
2022-12-20T13:19:18.644Z,97348.06
2022-12-20T13:21:48.567Z,97355.75
2022-12-20T13:24:53.362Z,97357.41
2022-12-20T13:27:40.925Z,97351.47
2022-12-20T13:30:28.561Z,97354.03
2022-12-20T13:33:23.045Z,97366.03
2022-12-20T13:36:04.781Z,97349.78
2022-12-20T13:38:58.044Z,97372.03
2022-12-20T13:41:37.033Z,97369.47
2022-12-20T13:44:34.620Z,97360.03
2022-12-20T13:47:08.641Z,97360.91
2022-12-20T13:49:40.423Z,97376.28
2022-12-20T13:52:22.381Z,97377.16
2022-12-20T13:54:53.923Z,97374.56
2022-12-20T13:57:29.523Z,97378.00
2022-12-20T14:00:06.559Z,97363.47
2022-12-20T14:02:41.144Z,97384.84
2022-12-20T14:05:17.906Z,97379.66
2022-12-20T14:07:53.262Z,97361.75
2022-12-20T14:10:24.842Z,97359.19
2022-12-20T14:12:54.148Z,97358.31
2022-12-20T14:15:24.989Z,97348.91
2022-12-20T14:17:53.225Z,97356.63
2022-12-20T14:20:25.405Z,97361.75
2022-12-20T14:23:04.953Z,97354.91
2022-12-20T14:25:40.604Z,97370.28
2022-12-20T14:28:26.483Z,97373.72
2022-12-20T14:30:56.543Z,97383.16
2022-12-20T14:33:36.066Z,97354.91
2022-12-20T14:36:19.285Z,97342.88
2022-12-20T14:38:50.626Z,97312.13
2022-12-20T14:41:37.234Z,97321.53
2022-12-20T14:44:16.715Z,97314.69
2022-12-20T14:46:50.046Z,97324.97
2022-12-20T14:49:25.921Z,97326.66
2022-12-20T14:52:06.677Z,97316.31
2022-12-20T14:55:07.154Z,97310.25
2022-12-20T14:57:39.259Z,97328.13
2022-12-20T15:00:15.293Z,97317.91
2022-12-20T15:02:48.125Z,97321.41
2022-12-20T15:05:47.220Z,97330.66
2022-12-20T15:08:18.392Z,97312.66
2022-12-20T15:10:54.402Z,97321.22
2022-12-20T15:13:26.659Z,97309.16
2022-12-20T15:15:55.556Z,97317.94
2022-12-20T15:18:23.730Z,97328.34
2022-12-20T15:21:03.192Z,97318.97
2022-12-20T15:23:32.291Z,97326.69
2022-12-20T15:26:02.909Z,97313.84
2022-12-20T15:28:31.319Z,97328.22
2022-12-20T15:30:59.518Z,97305.31
2022-12-20T15:33:30.488Z,97296.75
2022-12-20T15:35:58.864Z,97286.50
2022-12-20T15:39:03.115Z,97282.13
2022-12-20T15:41:22.804Z,97283.88
2022-12-20T15:43:53.579Z,97288.19
2022-12-20T15:46:21.933Z,97305.28
2022-12-20T15:48:50.283Z,97313.00
2022-12-20T15:51:22.920Z,97307.84
2022-12-20T15:53:50.952Z,97307.88
2022-12-20T15:56:23.122Z,97313.84
2022-12-20T15:58:52.837Z,97300.16
2022-12-20T16:01:23.911Z,97301.91
2022-12-20T16:03:55.895Z,97305.94
2022-12-20T16:06:24.256Z,97290.75
2022-12-20T16:08:52.683Z,97292.41
2022-12-20T16:11:24.923Z,97309.50
2022-12-20T16:13:52.989Z,97304.44
2022-12-20T16:16:23.465Z,97317.25
2022-12-20T16:18:53.904Z,97310.28
2022-12-20T16:21:24.666Z,97309.34
2022-12-20T16:23:53.639Z,97308.53
2022-12-20T16:26:24.991Z,97302.66
2022-12-20T16:29:34.265Z,97297.47
2022-12-20T16:40:01.557Z,97295.88
2022-12-20T16:42:38.865Z,97282.84
2022-12-20T16:45:17.229Z,97287.97
2022-12-20T16:47:52.683Z,97288.97
2022-12-20T16:50:28.222Z,97280.41
2022-12-20T16:52:57.158Z,97276.97
2022-12-20T16:55:37.710Z,97290.59
2022-12-20T16:58:21.294Z,97291.47
2022-12-20T17:00:51.641Z,97286.44
2022-12-20T17:03:23.239Z,97279.56
2022-12-20T17:05:58.083Z,97292.50
2022-12-20T17:11:27.250Z,97279.66
2022-12-20T17:13:58.994Z,97277.06
2022-12-20T17:16:30.841Z,97265.97
2022-12-20T17:19:01.377Z,97266.78
2022-12-20T17:24:26.193Z,97253.13
2022-12-20T17:26:55.366Z,97256.56
2022-12-20T17:29:26.107Z,97263.41
2022-12-20T17:31:54.576Z,97281.28
2022-12-20T17:34:24.780Z,97267.63
2022-12-20T17:36:54.866Z,97265.00
2022-12-20T17:39:24.570Z,97266.81
2022-12-20T17:41:54.160Z,97261.69
2022-12-20T17:44:24.772Z,97257.44
2022-12-20T17:46:56.067Z,97265.94
2022-12-20T17:49:33.848Z,97259.94
2022-12-20T17:52:07.129Z,97247.13
2022-12-20T17:54:40.300Z,97233.47
2022-12-20T17:57:16.547Z,97250.56
2022-12-20T17:59:46.636Z,97243.72
2022-12-20T18:02:23.114Z,97254.84
2022-12-20T18:04:54.794Z,97246.25
2022-12-20T18:07:25.873Z,97248.88
2022-12-20T18:09:58.843Z,97237.72
2022-12-20T18:12:30.280Z,97246.28
2022-12-20T18:15:01.156Z,97257.41
2022-12-20T18:17:47.972Z,97255.69
2022-12-20T18:20:23.140Z,97256.53
2022-12-20T18:23:00.217Z,97249.72
2022-12-20T18:25:30.474Z,97238.63
2022-12-20T18:27:58.680Z,97225.78
2022-12-20T18:30:27.159Z,97212.09
2022-12-20T18:33:36.974Z,97207.81
2022-12-20T18:36:10.219Z,97203.56
2022-12-20T18:38:39.829Z,97207.84
2022-12-20T18:41:12.154Z,97214.66
2022-12-20T18:43:40.826Z,97206.97
2022-12-20T18:46:16.358Z,97214.66
2022-12-20T18:49:32.624Z,97212.84
2022-12-20T18:52:33.988Z,97198.44
2022-12-20T18:55:16.082Z,97190.75
2022-12-20T18:57:47.996Z,97195.84
2022-12-20T19:00:21.520Z,97189.03
2022-12-20T19:02:53.233Z,97186.47
2022-12-20T19:05:25.024Z,97181.34
2022-12-20T19:07:59.725Z,97177.06
2022-12-20T19:10:38.237Z,97184.75
2022-12-20T19:13:11.854Z,97198.41
2022-12-20T19:15:42.095Z,97198.44
2022-12-20T19:18:11.168Z,97206.97
2022-12-20T19:20:42.180Z,97187.34
2022-12-20T19:23:12.542Z,97193.31
2022-12-20T19:25:41.629Z,97185.59
2022-12-20T19:28:10.646Z,97188.16
2022-12-20T19:30:39.808Z,97175.38
2022-12-20T19:33:09.265Z,97185.56
2022-12-20T19:35:55.503Z,97188.97
2022-12-20T19:38:29.480Z,97183.84
2022-12-20T19:40:58.478Z,97189.00
2022-12-20T19:43:27.462Z,97174.50
2022-12-20T19:45:58.415Z,97178.78
2022-12-20T19:48:26.903Z,97198.44
2022-12-20T19:51:03.027Z,97179.63
2022-12-20T19:53:35.578Z,97177.91
2022-12-20T19:56:04.819Z,97175.34
2022-12-20T19:58:33.461Z,97180.47
2022-12-20T20:01:06.052Z,97192.47
2022-12-20T20:03:35.105Z,97189.88
2022-12-20T20:06:04.947Z,97187.31
2022-12-20T20:08:36.111Z,97174.47
2022-12-20T20:11:09.675Z,97188.00
2022-12-20T20:13:42.054Z,97195.81
2022-12-20T20:16:15.471Z,97184.47
2022-12-20T20:18:49.660Z,97169.38
2022-12-20T20:21:24.486Z,97166.81
2022-12-20T20:23:56.187Z,97167.63
2022-12-20T20:26:29.855Z,97157.44
2022-12-20T20:28:58.968Z,97162.53
2022-12-20T20:31:27.529Z,97164.25
2022-12-20T20:33:56.900Z,97159.09
2022-12-20T20:36:26.307Z,97178.78
2022-12-20T20:39:00.031Z,97171.06
2022-12-20T20:41:29.816Z,97172.78
2022-12-20T20:43:58.610Z,97181.31
2022-12-20T20:46:27.049Z,97168.50
2022-12-20T20:48:55.673Z,97171.91
2022-12-20T20:51:24.149Z,97149.72
2022-12-20T20:53:53.291Z,97145.47
2022-12-20T20:56:24.306Z,97131.78
2022-12-20T20:58:55.228Z,97124.09
2022-12-20T21:01:28.266Z,97133.47
2022-12-20T21:04:01.844Z,97125.81
2022-12-20T21:06:46.981Z,97136.00
2022-12-20T21:09:15.876Z,97121.44
2022-12-20T21:11:47.166Z,97114.63
2022-12-20T21:14:25.686Z,97127.41
2022-12-20T21:17:07.008Z,97117.22
2022-12-20T21:19:35.555Z,97111.16
2022-12-20T21:22:05.293Z,97112.91
2022-12-20T21:24:34.469Z,97112.13
2022-12-20T21:27:05.273Z,97114.53
2022-12-20T21:29:34.483Z,97110.31
2022-12-20T21:32:04.852Z,97106.97
2022-12-20T21:34:36.287Z,97125.78
2022-12-20T21:37:04.859Z,97137.69
2022-12-20T21:39:33.256Z,97123.09
2022-12-20T21:42:02.674Z,97110.91
2022-12-20T21:44:32.374Z,97121.50
2022-12-20T21:47:00.893Z,97126.59
2022-12-20T21:49:29.499Z,97119.78
2022-12-20T21:51:58.370Z,97121.50
2022-12-20T21:54:26.808Z,97103.47
2022-12-20T21:56:55.082Z,97102.53
2022-12-20T21:59:23.368Z,97114.63
2022-12-20T22:01:53.493Z,97112.50
2022-12-20T22:04:21.704Z,97104.00
2022-12-20T22:06:49.951Z,97092.25
2022-12-20T22:09:18.108Z,97084.72
2022-12-20T22:11:48.935Z,97100.09
2022-12-20T22:14:17.413Z,97086.50
2022-12-20T22:16:45.850Z,97078.75
2022-12-20T22:19:16.035Z,97080.53
2022-12-20T22:21:44.187Z,97080.56
2022-12-20T22:24:12.495Z,97076.25
2022-12-20T22:26:41.808Z,97088.22
2022-12-20T22:29:10.795Z,97092.50
2022-12-20T22:31:39.404Z,97095.94
2022-12-20T22:34:10.631Z,97096.78
2022-12-20T22:36:43.763Z,97110.44
2022-12-20T22:39:18.366Z,97098.47
2022-12-20T22:41:49.638Z,97088.22
2022-12-20T22:44:18.799Z,97078.75
2022-12-20T22:46:48.439Z,97068.53
2022-12-20T22:49:20.545Z,97077.09
2022-12-20T22:52:06.294Z,97071.03
2022-12-20T22:54:43.789Z,97075.41
2022-12-20T22:57:15.544Z,97070.28
2022-12-20T22:59:53.003Z,97074.59
2022-12-20T23:02:27.987Z,97077.09
2022-12-20T23:04:58.644Z,97072.88
2022-12-20T23:07:30.148Z,97073.69
2022-12-20T23:10:01.348Z,97068.34
2022-12-20T23:12:47.856Z,97063.09
2022-12-20T23:15:36.236Z,97048.66
2022-12-20T23:18:06.867Z,97043.72
2022-12-20T23:20:53.042Z,97059.78
2022-12-20T23:23:24.406Z,97063.84
2022-12-20T23:25:56.013Z,97081.19
2022-12-20T23:28:33.433Z,97066.78
2022-12-20T23:31:07.359Z,97059.97
2022-12-20T23:33:45.354Z,97067.69
2022-12-20T23:36:39.251Z,97051.50
2022-12-20T23:39:15.839Z,97042.13
2022-12-20T23:42:47.320Z,97037.00
2022-12-20T23:45:22.323Z,97045.53
2022-12-20T23:47:58.478Z,97052.38
2022-12-20T23:50:29.148Z,97047.25
2022-12-20T23:53:00.530Z,97051.47
2022-12-20T23:55:31.433Z,97043.81
2022-12-20T23:58:13.270Z,97057.50
